Time;durP1;ratioP1;P1;durP2;ratioP2;P2;SDS_P1;SDS_P2;PMS_P1;PMS_P2;Temp;Humidity;BMP_temperature;BMP_pressure;BME280_temperature;BME280_humidity;BME280_pressure;Samples;Min_cycle;Max_cycle;Signal;HPM_P1;HPM_P2
2023/04/26 00:02:14;;;;;;;6.20;3.00;;;;;;;;;;5028075;28;20240;-74
2023/04/26 00:04:41;;;;;;;4.50;3.27;;;;;;;;;;5031633;28;20185;-74
2023/04/26 00:07:07;;;;;;;5.70;3.27;;;;;;;;;;5030366;28;20843;-74
2023/04/26 00:09:33;;;;;;;3.33;2.60;;;;;;;;;;5031428;28;20186;-75
2023/04/26 00:12:00;;;;;;;4.83;2.93;;;;;;;;;;5031263;28;20186;-75
2023/04/26 00:14:26;;;;;;;5.43;3.17;;;;;;;;;;5031638;28;20235;-74
2023/04/26 00:16:52;;;;;;;7.13;3.63;;;;;;;;;;5030485;28;20198;-75
2023/04/26 00:19:18;;;;;;;5.43;3.37;;;;;;;;;;5031385;28;20262;-74
2023/04/26 00:21:44;;;;;;;6.00;3.40;;;;;;;;;;5025637;28;20543;-74
2023/04/26 00:24:11;;;;;;;7.13;4.17;;;;;;;;;;5030042;28;20182;-74
2023/04/26 00:26:37;;;;;;;8.73;3.53;;;;;;;;;;5030451;28;20198;-74
2023/04/26 00:29:06;;;;;;;6.70;3.70;;;;;;;;;;5016318;28;20668;-74
2023/04/26 00:31:32;;;;;;;6.57;3.37;;;;;;;;;;5033766;28;20187;-74
2023/04/26 00:33:58;;;;;;;9.43;3.60;;;;;;;;;;5029917;28;20184;-74
2023/04/26 00:36:25;;;;;;;4.77;3.33;;;;;;;;;;5011443;28;20306;-75
2023/04/26 00:38:52;;;;;;;8.93;3.70;;;;;;;;;;5024058;28;20206;-74
2023/04/26 00:41:18;;;;;;;6.10;3.30;;;;;;;;;;5029623;28;20182;-74
2023/04/26 00:43:44;;;;;;;7.47;4.00;;;;;;;;;;5030481;28;20181;-74
2023/04/26 00:46:11;;;;;;;6.30;4.00;;;;;;;;;;5031238;28;20297;-74
2023/04/26 00:48:37;;;;;;;6.97;4.23;;;;;;;;;;5021863;28;20186;-74
2023/04/26 00:51:05;;;;;;;5.60;3.93;;;;;;;;;;5031215;28;20269;-75
2023/04/26 00:53:33;;;;;;;6.37;3.70;;;;;;;;;;5012512;28;20183;-74
2023/04/26 00:55:59;;;;;;;9.13;4.37;;;;;;;;;;5029560;28;20218;-74
2023/04/26 00:58:25;;;;;;;6.10;4.20;;;;;;;;;;4997593;28;20218;-74
2023/04/26 01:00:52;;;;;;;7.70;3.97;;;;;;;;;;5028613;28;20179;-74
2023/04/26 01:03:18;;;;;;;9.70;4.70;;;;;;;;;;5012482;28;20198;-74
2023/04/26 01:05:45;;;;;;;8.03;4.00;;;;;;;;;;5028543;28;20708;-74
2023/04/26 01:08:11;;;;;;;12.27;4.03;;;;;;;;;;5024964;28;20320;-74
2023/04/26 01:10:37;;;;;;;4.93;3.73;;;;;;;;;;5030353;28;20230;-74
2023/04/26 01:13:04;;;;;;;10.10;3.73;;;;;;;;;;5024808;28;20677;-74
2023/04/26 01:15:32;;;;;;;8.40;3.20;;;;;;;;;;5029300;28;20226;-74
2023/04/26 01:17:58;;;;;;;5.87;3.47;;;;;;;;;;5030725;28;20179;-74
2023/04/26 01:20:25;;;;;;;4.07;2.90;;;;;;;;;;5030524;28;20583;-74
2023/04/26 01:22:51;;;;;;;5.13;2.80;;;;;;;;;;5028558;28;20210;-74
2023/04/26 01:25:19;;;;;;;6.97;3.67;;;;;;;;;;5030473;28;20293;-74
2023/04/26 01:27:45;;;;;;;7.53;3.63;;;;;;;;;;5030112;28;20257;-74
2023/04/26 01:30:12;;;;;;;10.77;4.30;;;;;;;;;;5030763;28;20175;-75
2023/04/26 01:32:38;;;;;;;8.93;3.80;;;;;;;;;;5024473;28;20178;-75
2023/04/26 01:35:04;;;;;;;4.90;3.37;;;;;;;;;;5025920;28;20221;-74
2023/04/26 01:37:30;;;;;;;7.40;3.93;;;;;;;;;;5029633;28;20672;-74
2023/04/26 01:39:59;;;;;;;6.20;3.73;;;;;;;;;;5016680;28;20190;-74
2023/04/26 01:42:25;;;;;;;6.47;3.40;;;;;;;;;;5026512;28;20568;-75
2023/04/26 01:44:51;;;;;;;5.53;3.57;;;;;;;;;;5023233;28;20187;-74
2023/04/26 01:47:17;;;;;;;6.07;3.90;;;;;;;;;;5032949;28;20229;-74
2023/04/26 01:49:45;;;;;;;9.33;4.23;;;;;;;;;;5016669;28;20175;-74
2023/04/26 01:52:11;;;;;;;6.87;3.53;;;;;;;;;;5027117;28;20221;-74
2023/04/26 01:54:37;;;;;;;8.00;4.07;;;;;;;;;;5033835;28;20279;-74
2023/04/26 01:57:03;;;;;;;4.60;3.47;;;;;;;;;;5032686;28;20340;-74
2023/04/26 01:59:29;;;;;;;7.40;3.30;;;;;;;;;;5025944;28;20544;-74
2023/04/26 02:01:58;;;;;;;6.17;3.50;;;;;;;;;;5016392;28;20182;-74
2023/04/26 02:04:24;;;;;;;6.90;4.13;;;;;;;;;;5008339;28;20187;-74
2023/04/26 02:06:50;;;;;;;5.80;3.60;;;;;;;;;;5031767;28;20665;-74
2023/04/26 02:09:17;;;;;;;6.37;3.90;;;;;;;;;;5032473;28;20190;-74
2023/04/26 02:11:43;;;;;;;5.43;3.80;;;;;;;;;;5031702;28;20258;-74
2023/04/26 02:14:09;;;;;;;5.77;3.30;;;;;;;;;;5031489;28;20182;-74
2023/04/26 02:16:35;;;;;;;6.47;4.10;;;;;;;;;;5024776;28;20218;-74
2023/04/26 02:19:04;;;;;;;5.43;3.77;;;;;;;;;;5014848;28;20192;-74
2023/04/26 02:21:30;;;;;;;10.13;3.60;;;;;;;;;;5012506;28;20613;-74
2023/04/26 02:23:56;;;;;;;6.70;3.93;;;;;;;;;;5026419;28;20194;-74
2023/04/26 02:26:23;;;;;;;4.63;3.30;;;;;;;;;;5029138;28;20208;-74
2023/04/26 02:28:49;;;;;;;5.30;3.50;;;;;;;;;;5029342;28;20179;-74
2023/04/26 02:31:15;;;;;;;5.63;3.70;;;;;;;;;;5029675;28;20202;-74
2023/04/26 02:33:41;;;;;;;4.43;3.20;;;;;;;;;;5028999;28;20215;-74
2023/04/26 02:36:07;;;;;;;7.17;3.60;;;;;;;;;;5031790;28;20340;-74
2023/04/26 02:38:35;;;;;;;3.80;3.20;;;;;;;;;;5017824;28;20253;-73
2023/04/26 02:41:03;;;;;;;4.80;3.33;;;;;;;;;;5022729;28;20186;-74
2023/04/26 02:43:30;;;;;;;5.27;3.80;;;;;;;;;;5014470;28;20189;-74
2023/04/26 02:45:59;;;;;;;6.20;3.70;;;;;;;;;;5044206;28;20211;-74
2023/04/26 02:48:26;;;;;;;7.13;3.83;;;;;;;;;;5042845;28;20658;-74
2023/04/26 02:50:52;;;;;;;5.97;4.00;;;;;;;;;;4995605;28;20191;-73
2023/04/26 02:53:18;;;;;;;4.93;3.50;;;;;;;;;;5041744;28;20190;-74
2023/04/26 02:55:44;;;;;;;6.03;3.80;;;;;;;;;;5032483;28;20284;-74
2023/04/26 02:58:11;;;;;;;6.90;4.00;;;;;;;;;;5033066;28;20185;-74
2023/04/26 03:00:38;;;;;;;6.93;3.87;;;;;;;;;;5032915;28;20265;-74
2023/04/26 03:03:04;;;;;;;7.20;4.00;;;;;;;;;;5025938;28;20198;-74
2023/04/26 03:05:30;;;;;;;5.43;4.20;;;;;;;;;;5025149;28;20202;-74
2023/04/26 03:07:57;;;;;;;8.80;4.37;;;;;;;;;;5030459;28;20541;-74
2023/04/26 03:10:23;;;;;;;7.50;4.50;;;;;;;;;;5027935;28;20268;-74
2023/04/26 03:12:49;;;;;;;8.93;5.00;;;;;;;;;;5022393;28;20662;-74
2023/04/26 03:15:15;;;;;;;5.60;4.50;;;;;;;;;;5030100;28;20218;-74
2023/04/26 03:17:42;;;;;;;9.00;4.97;;;;;;;;;;5031098;28;20183;-74
2023/04/26 03:20:09;;;;;;;7.53;5.17;;;;;;;;;;5031442;28;20183;-74
2023/04/26 03:22:35;;;;;;;7.53;5.10;;;;;;;;;;5028372;28;20413;-74
2023/04/26 03:25:02;;;;;;;7.33;4.50;;;;;;;;;;5024431;28;20197;-74
2023/04/26 03:27:29;;;;;;;6.53;4.43;;;;;;;;;;5015117;28;20178;-74
2023/04/26 03:29:55;;;;;;;6.63;4.40;;;;;;;;;;5030897;28;20182;-74
2023/04/26 03:32:21;;;;;;;5.23;3.93;;;;;;;;;;5031080;28;20651;-74
2023/04/26 03:34:48;;;;;;;4.33;3.90;;;;;;;;;;5024976;28;20285;-74
2023/04/26 03:37:15;;;;;;;5.13;4.37;;;;;;;;;;5030916;28;20617;-74
2023/04/26 03:39:43;;;;;;;5.33;4.27;;;;;;;;;;5025594;28;20245;-74
2023/04/26 03:42:10;;;;;;;6.70;4.70;;;;;;;;;;5030546;28;20273;-74
2023/04/26 03:44:36;;;;;;;5.63;4.70;;;;;;;;;;5024690;28;20654;-74
2023/04/26 03:47:04;;;;;;;5.80;4.40;;;;;;;;;;5027695;28;20206;-74
2023/04/26 03:49:30;;;;;;;5.87;4.30;;;;;;;;;;5012538;28;20187;-74
2023/04/26 03:51:57;;;;;;;7.70;4.30;;;;;;;;;;5030433;28;20179;-74
2023/04/26 03:54:23;;;;;;;5.77;4.70;;;;;;;;;;5029858;28;20225;-74
2023/04/26 03:56:49;;;;;;;9.37;4.40;;;;;;;;;;5030767;28;20202;-74
2023/04/26 03:59:16;;;;;;;10.00;4.80;;;;;;;;;;5028059;28;20187;-74
2023/04/26 04:01:42;;;;;;;6.33;4.50;;;;;;;;;;5025747;28;20557;-74
2023/04/26 04:04:09;;;;;;;6.93;4.40;;;;;;;;;;5013643;28;20179;-74
2023/04/26 04:06:35;;;;;;;8.13;4.17;;;;;;;;;;5030581;28;20206;-74
2023/04/26 04:09:01;;;;;;;7.17;3.90;;;;;;;;;;5029100;28;20197;-74
2023/04/26 04:11:27;;;;;;;5.50;4.07;;;;;;;;;;5031139;28;20674;-74
2023/04/26 04:13:53;;;;;;;6.47;4.20;;;;;;;;;;5030020;28;20183;-74
2023/04/26 04:16:20;;;;;;;8.03;4.20;;;;;;;;;;5030028;28;20225;-74
2023/04/26 04:18:46;;;;;;;6.60;4.07;;;;;;;;;;5029733;28;20182;-74
2023/04/26 04:21:12;;;;;;;6.30;4.10;;;;;;;;;;5031330;28;20653;-74
2023/04/26 04:23:39;;;;;;;6.43;4.10;;;;;;;;;;5028592;28;20583;-74
2023/04/26 04:26:08;;;;;;;5.90;4.40;;;;;;;;;;5024458;28;20573;-73
2023/04/26 04:28:34;;;;;;;6.90;4.90;;;;;;;;;;5020118;28;20194;-73
2023/04/26 04:31:01;;;;;;;5.83;3.70;;;;;;;;;;5003674;28;20183;-73
2023/04/26 04:33:27;;;;;;;7.73;4.33;;;;;;;;;;5027065;28;20221;-73
2023/04/26 04:35:54;;;;;;;5.67;4.10;;;;;;;;;;5025852;28;20214;-73
2023/04/26 04:38:20;;;;;;;6.93;5.00;;;;;;;;;;5029733;28;20179;-73
2023/04/26 04:40:50;;;;;;;6.83;4.40;;;;;;;;;;5029117;28;20186;-73
2023/04/26 04:43:17;;;;;;;8.03;4.40;;;;;;;;;;5025576;28;20206;-73
2023/04/26 04:45:43;;;;;;;6.93;4.40;;;;;;;;;;5029154;28;20701;-73
2023/04/26 04:48:10;;;;;;;6.50;4.47;;;;;;;;;;5030115;28;20198;-73
2023/04/26 04:50:38;;;;;;;8.33;4.77;;;;;;;;;;5027743;28;20193;-73
2023/04/26 04:53:04;;;;;;;6.33;4.30;;;;;;;;;;5027661;28;20193;-73
2023/04/26 04:55:30;;;;;;;6.47;4.47;;;;;;;;;;5019719;28;20737;-73
2023/04/26 04:57:57;;;;;;;7.33;4.30;;;;;;;;;;5020462;28;20190;-73
2023/04/26 05:00:24;;;;;;;6.73;4.63;;;;;;;;;;5020422;28;20560;-73
2023/04/26 05:02:56;;;;;;;4.90;4.27;;;;;;;;;;5025651;28;20260;-73
2023/04/26 05:05:23;;;;;;;7.70;4.57;;;;;;;;;;5023426;28;20280;-73
2023/04/26 05:07:49;;;;;;;7.07;5.07;;;;;;;;;;5016005;28;20175;-73
2023/04/26 05:10:15;;;;;;;8.73;4.90;;;;;;;;;;5025304;28;20187;-73
2023/04/26 05:12:42;;;;;;;6.07;4.13;;;;;;;;;;4998263;28;20190;-73
2023/04/26 05:15:08;;;;;;;7.23;4.63;;;;;;;;;;5033555;28;21036;-73
2023/04/26 05:17:34;;;;;;;8.27;5.13;;;;;;;;;;5033570;28;20183;-73
2023/04/26 05:20:10;;;;;;;7.83;5.10;;;;;;;;;;5023541;28;20258;-73
2023/04/26 05:22:36;;;;;;;6.80;4.80;;;;;;;;;;5023075;28;20289;-73
2023/04/26 05:25:04;;;;;;;7.37;5.00;;;;;;;;;;5031872;28;20197;-73
2023/04/26 05:27:30;;;;;;;7.73;5.13;;;;;;;;;;5033509;28;20190;-73
2023/04/26 05:30:19;;;;;;;5.43;4.80;;;;;;;;;;5018908;28;20187;-73
2023/04/26 05:33:09;;;;;;;6.50;5.30;;;;;;;;;;5023606;28;20202;-73
2023/04/26 05:35:48;;;;;;;10.70;5.53;;;;;;;;;;5014781;28;20209;-73
2023/04/26 05:38:15;;;;;;;6.00;4.47;;;;;;;;;;5022042;28;20186;-73
2023/04/26 05:40:41;;;;;;;9.37;5.27;;;;;;;;;;5028489;28;20604;-73
2023/04/26 05:43:07;;;;;;;9.27;5.13;;;;;;;;;;5027505;28;20705;-73
2023/04/26 05:45:36;;;;;;;9.70;5.20;;;;;;;;;;5038286;28;20210;-73
2023/04/26 05:48:02;;;;;;;9.77;4.97;;;;;;;;;;5013260;28;20197;-74
2023/04/26 05:50:28;;;;;;;9.63;5.27;;;;;;;;;;5032310;28;20808;-72
2023/04/26 05:52:54;;;;;;;7.37;5.13;;;;;;;;;;5023356;28;20840;-73
2023/04/26 05:55:20;;;;;;;9.10;5.33;;;;;;;;;;5032506;28;20225;-75
2023/04/26 05:57:46;;;;;;;10.80;5.27;;;;;;;;;;5026702;28;20175;-78
2023/04/26 06:00:14;;;;;;;10.50;5.50;;;;;;;;;;5028688;28;20223;-76
2023/04/26 06:02:42;;;;;;;7.50;5.20;;;;;;;;;;5019537;28;20215;-78
2023/04/26 06:05:13;;;;;;;10.30;5.40;;;;;;;;;;5004961;28;20739;-78
2023/04/26 06:07:39;;;;;;;7.53;5.43;;;;;;;;;;5018343;28;20646;-79
2023/04/26 06:10:06;;;;;;;10.63;5.97;;;;;;;;;;5021326;28;20202;-78
2023/04/26 06:12:32;;;;;;;8.73;6.23;;;;;;;;;;5007826;28;20199;-79
2023/04/26 06:14:59;;;;;;;10.93;6.13;;;;;;;;;;4998770;28;20210;-77
2023/04/26 06:17:27;;;;;;;9.73;6.50;;;;;;;;;;5006576;28;20179;-79
2023/04/26 06:19:53;;;;;;;11.77;5.70;;;;;;;;;;5020665;28;20561;-78
2023/04/26 06:22:19;;;;;;;10.57;6.50;;;;;;;;;;5021176;28;20209;-78
2023/04/26 06:24:46;;;;;;;10.40;5.97;;;;;;;;;;5029437;28;20186;-79
2023/04/26 06:27:12;;;;;;;11.83;6.10;;;;;;;;;;5012945;28;20270;-79
2023/04/26 06:29:42;;;;;;;9.67;6.27;;;;;;;;;;4999531;28;20210;-80
2023/04/26 06:32:08;;;;;;;8.83;6.70;;;;;;;;;;5039787;28;20182;-80
2023/04/26 06:34:36;;;;;;;8.13;5.83;;;;;;;;;;5012159;28;20191;-80
2023/04/26 06:37:06;;;;;;;10.40;5.80;;;;;;;;;;5033394;28;20244;-79
2023/04/26 06:39:34;;;;;;;8.47;5.07;;;;;;;;;;5012309;28;20697;-75
2023/04/26 06:42:00;;;;;;;10.40;6.00;;;;;;;;;;5025666;28;20202;-75
2023/04/26 06:44:45;;;;;;;8.90;5.60;;;;;;;;;;5027620;28;20178;-79
2023/04/26 06:47:11;;;;;;;8.70;5.27;;;;;;;;;;5015942;28;20713;-79
2023/04/26 06:49:38;;;;;;;8.67;5.10;;;;;;;;;;5033062;28;20186;-79
2023/04/26 06:52:05;;;;;;;9.53;5.60;;;;;;;;;;5022090;28;20193;-77
2023/04/26 06:54:32;;;;;;;8.13;5.60;;;;;;;;;;5026698;28;20195;-77
2023/04/26 06:56:58;;;;;;;10.43;6.00;;;;;;;;;;5025235;28;20351;-77
2023/04/26 06:59:24;;;;;;;8.67;5.13;;;;;;;;;;5016955;28;20180;-77
2023/04/26 07:01:50;;;;;;;9.00;5.13;;;;;;;;;;5018857;28;20280;-77
2023/04/26 07:04:17;;;;;;;6.93;5.07;;;;;;;;;;5013175;28;20640;-76
2023/04/26 07:06:44;;;;;;;8.03;5.63;;;;;;;;;;5015746;28;20206;-77
2023/04/26 07:09:11;;;;;;;10.53;5.80;;;;;;;;;;5033060;28;20183;-76
2023/04/26 07:11:37;;;;;;;9.83;5.23;;;;;;;;;;5030496;28;20182;-76
2023/04/26 07:14:04;;;;;;;7.40;5.23;;;;;;;;;;5026726;28;20175;-77
2023/04/26 07:16:30;;;;;;;8.10;5.47;;;;;;;;;;5021967;28;20221;-76
2023/04/26 07:18:57;;;;;;;9.73;5.40;;;;;;;;;;5026785;28;20269;-77
2023/04/26 07:21:24;;;;;;;8.70;4.83;;;;;;;;;;5030400;28;20182;-77
2023/04/26 07:23:56;;;;;;;7.60;4.90;;;;;;;;;;5041273;28;20548;-76
2023/04/26 07:26:23;;;;;;;10.33;4.60;;;;;;;;;;5017759;28;20782;-77
2023/04/26 07:28:52;;;;;;;10.70;5.23;;;;;;;;;;5033225;28;20261;-75
2023/04/26 07:31:19;;;;;;;13.20;5.30;;;;;;;;;;5022888;28;20187;-78
2023/04/26 07:33:45;;;;;;;10.20;5.60;;;;;;;;;;5030354;28;20190;-78
2023/04/26 07:36:11;;;;;;;8.63;5.83;;;;;;;;;;5033683;28;20210;-75
2023/04/26 07:38:37;;;;;;;9.57;5.70;;;;;;;;;;5027257;28;20215;-80
2023/04/26 07:41:04;;;;;;;11.77;6.20;;;;;;;;;;5020214;28;20233;-75
2023/04/26 07:43:30;;;;;;;10.20;5.97;;;;;;;;;;5040294;28;21164;-75
2023/04/26 07:46:00;;;;;;;8.33;6.20;;;;;;;;;;5047711;28;20713;-75
2023/04/26 07:48:27;;;;;;;11.93;5.93;;;;;;;;;;5031390;28;20210;-75
2023/04/26 07:50:54;;;;;;;8.43;5.93;;;;;;;;;;5024229;28;20705;-75
2023/04/26 07:53:21;;;;;;;11.53;6.57;;;;;;;;;;5019183;28;20191;-75
2023/04/26 07:55:47;;;;;;;11.53;6.90;;;;;;;;;;5026969;28;20238;-75
2023/04/26 07:58:13;;;;;;;10.33;6.20;;;;;;;;;;5025021;28;20187;-75
2023/04/26 08:00:40;;;;;;;12.70;6.03;;;;;;;;;;5032213;28;20182;-75
2023/04/26 08:03:07;;;;;;;13.00;6.13;;;;;;;;;;5021878;28;20178;-75
2023/04/26 08:05:33;;;;;;;7.53;5.90;;;;;;;;;;5028245;28;20596;-75
2023/04/26 08:08:00;;;;;;;10.40;6.00;;;;;;;;;;5016686;28;20187;-75
2023/04/26 08:10:26;;;;;;;7.43;5.67;;;;;;;;;;5018230;28;20194;-75
2023/04/26 08:12:53;;;;;;;11.93;5.90;;;;;;;;;;4994740;28;20195;-75
2023/04/26 08:15:19;;;;;;;12.67;6.30;;;;;;;;;;5017532;28;20214;-75
2023/04/26 08:17:46;;;;;;;8.63;5.93;;;;;;;;;;5025579;28;20209;-75
2023/04/26 08:20:12;;;;;;;7.77;5.60;;;;;;;;;;5029121;28;20190;-75
2023/04/26 08:22:38;;;;;;;8.80;5.83;;;;;;;;;;5020110;28;20183;-75
2023/04/26 08:25:05;;;;;;;10.07;5.27;;;;;;;;;;5030850;28;20189;-75
2023/04/26 08:27:33;;;;;;;9.70;5.00;;;;;;;;;;5013510;28;20198;-75
2023/04/26 08:29:59;;;;;;;7.47;5.10;;;;;;;;;;5030442;28;20634;-75
2023/04/26 08:32:25;;;;;;;9.27;5.37;;;;;;;;;;5031616;28;20179;-75
2023/04/26 08:34:51;;;;;;;8.53;5.17;;;;;;;;;;5038267;28;20206;-76
2023/04/26 08:37:18;;;;;;;8.30;5.37;;;;;;;;;;5037199;28;20175;-75
2023/04/26 08:39:44;;;;;;;9.47;5.40;;;;;;;;;;5032147;28;20175;-77
2023/04/26 08:42:14;;;;;;;8.00;4.50;;;;;;;;;;5005371;28;20191;-78
2023/04/26 08:44:41;;;;;;;6.93;4.77;;;;;;;;;;5026687;28;20183;-79
2023/04/26 08:47:14;;;;;;;8.47;5.03;;;;;;;;;;5002704;28;20214;-79
2023/04/26 08:49:41;;;;;;;6.50;4.60;;;;;;;;;;5020225;28;20342;-79
2023/04/26 08:52:09;;;;;;;7.33;4.83;;;;;;;;;;5003756;28;20191;-79
2023/04/26 08:54:36;;;;;;;9.53;5.30;;;;;;;;;;5028973;28;20190;-79
2023/04/26 08:57:04;;;;;;;6.87;4.83;;;;;;;;;;5032326;28;20595;-79
2023/04/26 08:59:30;;;;;;;6.53;4.03;;;;;;;;;;5014343;28;20183;-79
2023/04/26 09:01:57;;;;;;;7.07;4.07;;;;;;;;;;5027021;28;20195;-79
2023/04/26 09:04:23;;;;;;;6.80;3.83;;;;;;;;;;5014816;28;20635;-79
2023/04/26 09:06:50;;;;;;;8.67;4.33;;;;;;;;;;5023266;28;20238;-79
2023/04/26 09:09:21;;;;;;;6.30;3.37;;;;;;;;;;5035884;28;20214;-78
2023/04/26 09:11:56;;;;;;;4.23;2.40;;;;;;;;;;5032038;28;20775;-79
2023/04/26 09:14:23;;;;;;;5.83;3.00;;;;;;;;;;5015104;28;20731;-79
2023/04/26 09:16:49;;;;;;;5.53;2.47;;;;;;;;;;4997767;28;20725;-79
2023/04/26 09:19:15;;;;;;;5.93;2.80;;;;;;;;;;5032266;28;20182;-79
2023/04/26 09:21:43;;;;;;;5.30;2.93;;;;;;;;;;5033270;28;20178;-79
2023/04/26 09:24:09;;;;;;;6.60;2.90;;;;;;;;;;5031353;28;20215;-79
2023/04/26 09:26:36;;;;;;;6.83;3.60;;;;;;;;;;5032879;28;20201;-79
2023/04/26 09:29:15;;;;;;;4.73;3.17;;;;;;;;;;5030887;28;20197;-79
2023/04/26 09:31:43;;;;;;;6.00;3.00;;;;;;;;;;5032267;28;20181;-78
2023/04/26 09:34:10;;;;;;;6.87;3.23;;;;;;;;;;5024409;28;20655;-81
2023/04/26 09:36:50;;;;;;;5.43;3.10;;;;;;;;;;5010158;28;20215;-80
2023/04/26 09:39:32;;;;;;;5.90;3.60;;;;;;;;;;5032954;28;20332;-80
2023/04/26 09:41:59;;;;;;;5.80;3.50;;;;;;;;;;5025945;28;20704;-81
2023/04/26 09:44:26;;;;;;;7.30;3.70;;;;;;;;;;5032047;28;20179;-81
2023/04/26 09:47:03;;;;;;;5.47;3.57;;;;;;;;;;5031019;28;20207;-80
2023/04/26 09:49:33;;;;;;;7.70;3.30;;;;;;;;;;5015230;28;20734;-81
2023/04/26 09:52:00;;;;;;;6.23;3.50;;;;;;;;;;5031806;28;20191;-81
2023/04/26 09:54:41;;;;;;;6.87;3.70;;;;;;;;;;5031595;28;20213;-81
2023/04/26 09:57:11;;;;;;;6.00;3.60;;;;;;;;;;5031413;28;20225;-81
2023/04/26 09:59:45;;;;;;;5.93;3.17;;;;;;;;;;5034562;28;20186;-81
2023/04/26 10:02:15;;;;;;;6.77;3.87;;;;;;;;;;5034387;28;20178;-81
2023/04/26 10:04:46;;;;;;;4.73;3.30;;;;;;;;;;5015620;28;20643;-81
2023/04/26 10:07:13;;;;;;;8.20;3.80;;;;;;;;;;5034080;28;20207;-80
2023/04/26 10:09:40;;;;;;;5.57;3.47;;;;;;;;;;4999535;28;20538;-81
2023/04/26 10:12:09;;;;;;;4.63;3.30;;;;;;;;;;5015114;28;20253;-82
2023/04/26 10:14:35;;;;;;;6.50;3.20;;;;;;;;;;5015293;28;20632;-81
2023/04/26 10:17:03;;;;;;;5.30;3.30;;;;;;;;;;5031921;28;20245;-81
2023/04/26 10:19:30;;;;;;;9.40;5.47;;;;;;;;;;5041378;28;20166;-81
2023/04/26 10:21:59;;;;;;;5.07;3.20;;;;;;;;;;5017442;28;20176;-81
2023/04/26 10:24:26;;;;;;;8.53;3.67;;;;;;;;;;5034798;28;20232;-81
2023/04/26 10:26:55;;;;;;;6.20;3.50;;;;;;;;;;5016106;28;20220;-81
2023/04/26 10:29:23;;;;;;;7.47;4.30;;;;;;;;;;5034504;28;20302;-82
2023/04/26 10:32:03;;;;;;;7.93;3.83;;;;;;;;;;5033865;28;20261;-81
2023/04/26 10:34:30;;;;;;;6.43;3.13;;;;;;;;;;5034609;28;20479;-81
2023/04/26 10:37:08;;;;;;;5.47;3.70;;;;;;;;;;5044657;28;20271;-81
2023/04/26 10:39:38;;;;;;;7.30;4.00;;;;;;;;;;5039812;28;20561;-81
2023/04/26 10:42:26;;;;;;;9.07;4.20;;;;;;;;;;5026856;28;20183;-81
2023/04/26 10:44:54;;;;;;;5.67;3.57;;;;;;;;;;5016141;28;20171;-81
2023/04/26 10:47:21;;;;;;;5.67;3.67;;;;;;;;;;4997208;28;20213;-81
2023/04/26 10:49:47;;;;;;;6.83;3.30;;;;;;;;;;5005971;28;20188;-81
2023/04/26 10:52:14;;;;;;;4.47;3.20;;;;;;;;;;5043640;28;20937;-80
2023/04/26 10:54:59;;;;;;;5.87;3.23;;;;;;;;;;5033612;28;20187;-81
2023/04/26 10:57:45;;;;;;;6.00;3.40;;;;;;;;;;5014155;28;20221;-81
2023/04/26 11:00:15;;;;;;;7.83;3.63;;;;;;;;;;5032851;28;20200;-81
2023/04/26 11:02:47;;;;;;;7.83;3.67;;;;;;;;;;5032595;28;20171;-81
2023/04/26 11:05:32;;;;;;;6.27;3.10;;;;;;;;;;5033843;28;20260;-81
2023/04/26 11:08:15;;;;;;;6.07;3.73;;;;;;;;;;5033733;28;20188;-81
2023/04/26 11:10:41;;;;;;;4.87;3.03;;;;;;;;;;5016066;28;20201;-81
2023/04/26 11:13:07;;;;;;;4.87;3.13;;;;;;;;;;5033627;28;20701;-81
2023/04/26 11:15:34;;;;;;;8.23;3.50;;;;;;;;;;5026022;28;20269;-81
2023/04/26 11:18:03;;;;;;;5.07;3.53;;;;;;;;;;4995882;28;20175;-81
2023/04/26 11:20:31;;;;;;;5.93;3.40;;;;;;;;;;5013156;28;20187;-81
2023/04/26 11:22:58;;;;;;;5.93;3.20;;;;;;;;;;4996208;28;20705;-81
2023/04/26 11:25:25;;;;;;;7.60;3.70;;;;;;;;;;5012808;28;20338;-82
2023/04/26 11:27:51;;;;;;;7.70;3.70;;;;;;;;;;5012533;28;20626;-82
2023/04/26 11:30:18;;;;;;;10.43;4.33;;;;;;;;;;5017966;28;20267;-81
2023/04/26 11:32:48;;;;;;;7.03;3.30;;;;;;;;;;4995879;28;20201;-80
2023/04/26 11:35:15;;;;;;;4.90;3.30;;;;;;;;;;4998376;28;20219;-79
2023/04/26 11:37:41;;;;;;;6.53;2.80;;;;;;;;;;4995931;28;20184;-77
2023/04/26 11:40:10;;;;;;;7.37;3.63;;;;;;;;;;5013455;28;20179;-78
2023/04/26 11:42:37;;;;;;;4.67;3.50;;;;;;;;;;5012729;28;20179;-78
2023/04/26 11:45:05;;;;;;;6.37;3.03;;;;;;;;;;5013318;28;20594;-77
2023/04/26 11:47:33;;;;;;;6.10;3.13;;;;;;;;;;5013016;28;20187;-78
2023/04/26 11:49:59;;;;;;;5.00;2.93;;;;;;;;;;5012110;28;20703;-77
2023/04/26 11:52:26;;;;;;;6.17;2.70;;;;;;;;;;5013136;28;20211;-78
2023/04/26 11:55:02;;;;;;;5.57;2.83;;;;;;;;;;5012690;28;20190;-78
2023/04/26 11:57:33;;;;;;;6.17;3.30;;;;;;;;;;5013187;28;20191;-80
2023/04/26 12:00:13;;;;;;;5.20;3.17;;;;;;;;;;5013150;28;20179;-78
2023/04/26 12:02:46;;;;;;;4.60;3.00;;;;;;;;;;5011783;28;20195;-77
2023/04/26 12:05:38;;;;;;;5.87;3.40;;;;;;;;;;5013984;28;20221;-81
2023/04/26 12:08:04;;;;;;;5.43;2.90;;;;;;;;;;5017965;28;20217;-81
2023/04/26 12:10:32;;;;;;;5.00;3.00;;;;;;;;;;5017347;28;20195;-78
2023/04/26 12:12:58;;;;;;;4.13;2.70;;;;;;;;;;4995398;28;20187;-77
2023/04/26 12:15:29;;;;;;;3.80;2.93;;;;;;;;;;5013467;28;20207;-78
2023/04/26 12:17:56;;;;;;;8.53;3.10;;;;;;;;;;5024677;28;20183;-78
2023/04/26 12:20:26;;;;;;;4.10;2.70;;;;;;;;;;5027804;28;20272;-78
2023/04/26 12:23:04;;;;;;;5.30;2.80;;;;;;;;;;5012994;28;20175;-79
2023/04/26 12:25:31;;;;;;;4.77;2.70;;;;;;;;;;5012107;28;20222;-81
2023/04/26 12:27:57;;;;;;;5.90;3.00;;;;;;;;;;5011459;28;20187;-79
2023/04/26 12:30:24;;;;;;;4.93;2.63;;;;;;;;;;5013046;28;20175;-80
2023/04/26 12:33:01;;;;;;;4.97;2.70;;;;;;;;;;5011757;28;20191;-79
2023/04/26 12:35:27;;;;;;;5.13;2.70;;;;;;;;;;5012875;28;20211;-80
2023/04/26 12:37:55;;;;;;;4.80;2.80;;;;;;;;;;5019512;28;20175;-79
2023/04/26 12:40:23;;;;;;;4.40;2.53;;;;;;;;;;5023559;28;20181;-80
2023/04/26 12:42:50;;;;;;;5.40;2.53;;;;;;;;;;5019949;28;20265;-79
2023/04/26 12:45:19;;;;;;;5.10;2.50;;;;;;;;;;5016447;28;20203;-79
2023/04/26 12:47:45;;;;;;;6.93;2.70;;;;;;;;;;5021551;28;20317;-79
2023/04/26 12:50:12;;;;;;;5.43;2.90;;;;;;;;;;5032181;28;20186;-78
2023/04/26 12:52:39;;;;;;;6.73;3.07;;;;;;;;;;5040546;28;20193;-78
2023/04/26 12:55:06;;;;;;;5.63;2.70;;;;;;;;;;5043276;28;20229;-79
2023/04/26 12:57:32;;;;;;;5.27;2.47;;;;;;;;;;5014880;28;20183;-78
2023/04/26 12:59:58;;;;;;;6.30;2.40;;;;;;;;;;5017763;28;20193;-79
2023/04/26 13:02:24;;;;;;;4.50;2.50;;;;;;;;;;5015588;28;20678;-78
2023/04/26 13:04:51;;;;;;;4.70;2.67;;;;;;;;;;5013083;28;20663;-78
2023/04/26 13:07:17;;;;;;;4.80;2.67;;;;;;;;;;5029603;28;20187;-78
2023/04/26 13:09:43;;;;;;;5.57;2.63;;;;;;;;;;5023022;28;20183;-79
2023/04/26 13:12:09;;;;;;;3.33;2.40;;;;;;;;;;5015084;28;20183;-77
2023/04/26 13:14:37;;;;;;;4.77;3.00;;;;;;;;;;5049472;28;20223;-77
2023/04/26 13:17:04;;;;;;;4.20;2.43;;;;;;;;;;5026522;28;20221;-76
2023/04/26 13:19:31;;;;;;;5.63;2.90;;;;;;;;;;5027824;28;20191;-75
2023/04/26 13:21:57;;;;;;;5.53;2.93;;;;;;;;;;5031473;28;20629;-75
2023/04/26 13:24:23;;;;;;;5.33;2.83;;;;;;;;;;5033188;28;20681;-76
2023/04/26 13:26:49;;;;;;;4.63;2.53;;;;;;;;;;5043025;28;20205;-76
2023/04/26 13:29:15;;;;;;;5.40;2.47;;;;;;;;;;5037517;28;20772;-76
2023/04/26 13:31:42;;;;;;;4.40;2.70;;;;;;;;;;5025323;28;20222;-76
2023/04/26 13:34:08;;;;;;;6.10;2.63;;;;;;;;;;5030418;28;20652;-77
2023/04/26 13:36:35;;;;;;;5.90;3.07;;;;;;;;;;5033242;28;20206;-76
2023/04/26 13:39:03;;;;;;;6.40;3.10;;;;;;;;;;5033501;28;20555;-76
2023/04/26 13:41:32;;;;;;;6.43;2.83;;;;;;;;;;5034938;28;20171;-76
2023/04/26 13:43:59;;;;;;;4.97;2.57;;;;;;;;;;5034376;28;20179;-77
2023/04/26 13:46:26;;;;;;;3.77;2.70;;;;;;;;;;5033562;28;20238;-76
2023/04/26 13:48:52;;;;;;;4.93;2.40;;;;;;;;;;5033397;28;20645;-76
2023/04/26 13:51:18;;;;;;;4.63;2.90;;;;;;;;;;5034747;28;20286;-78
2023/04/26 13:53:44;;;;;;;5.63;2.70;;;;;;;;;;5015132;28;20249;-76
2023/04/26 13:56:10;;;;;;;6.43;2.90;;;;;;;;;;5014747;28;20208;-76
2023/04/26 13:58:37;;;;;;;5.50;2.87;;;;;;;;;;5031702;28;20187;-77
2023/04/26 14:01:03;;;;;;;4.57;2.57;;;;;;;;;;5053527;28;20272;-77
2023/04/26 14:03:30;;;;;;;4.23;2.80;;;;;;;;;;5047649;28;20183;-77
2023/04/26 14:05:56;;;;;;;6.00;2.70;;;;;;;;;;5042985;28;20738;-76
2023/04/26 14:08:22;;;;;;;3.97;2.60;;;;;;;;;;5027666;28;20716;-76
2023/04/26 14:10:48;;;;;;;6.93;3.00;;;;;;;;;;5034777;28;20179;-76
2023/04/26 14:13:14;;;;;;;5.73;2.80;;;;;;;;;;5034361;28;20220;-77
2023/04/26 14:15:41;;;;;;;5.83;2.57;;;;;;;;;;5034088;28;20214;-76
2023/04/26 14:18:08;;;;;;;6.20;3.00;;;;;;;;;;5033611;28;20177;-76
2023/04/26 14:20:34;;;;;;;5.83;3.03;;;;;;;;;;5034085;28;20174;-77
2023/04/26 14:23:01;;;;;;;6.37;2.80;;;;;;;;;;5024989;28;20286;-76
2023/04/26 14:25:27;;;;;;;5.83;2.80;;;;;;;;;;5014546;28;20690;-76
2023/04/26 14:27:53;;;;;;;7.53;3.00;;;;;;;;;;5012900;28;20211;-77
2023/04/26 14:30:20;;;;;;;5.97;2.70;;;;;;;;;;5029022;28;20820;-76
2023/04/26 14:32:46;;;;;;;6.30;2.90;;;;;;;;;;5048759;28;20385;-77
2023/04/26 14:35:12;;;;;;;5.07;2.70;;;;;;;;;;5037864;28;20282;-77
2023/04/26 14:37:38;;;;;;;7.83;3.50;;;;;;;;;;5033865;28;20263;-77
2023/04/26 14:40:06;;;;;;;8.87;5.10;;;;;;;;;;5033404;28;20280;-77
2023/04/26 14:42:33;;;;;;;6.27;4.47;;;;;;;;;;5033300;28;20251;-77
2023/04/26 14:44:59;;;;;;;5.27;3.00;;;;;;;;;;5032540;28;20177;-77